createdAt,value
2022-10-21T00:01:52.526Z,32.67
2022-10-21T00:04:19.685Z,32.60
2022-10-21T00:06:46.997Z,33.33
2022-10-21T00:09:14.162Z,32.83
2022-10-21T00:11:41.321Z,33.27
2022-10-21T00:14:08.462Z,34.77
2022-10-21T00:16:35.553Z,33.43
2022-10-21T00:19:03.189Z,34.23
2022-10-21T00:21:30.337Z,35.07
2022-10-21T00:23:57.472Z,35.17
2022-10-21T00:26:24.736Z,33.90
2022-10-21T00:28:55.754Z,36.53
2022-10-21T00:31:22.916Z,36.23
2022-10-21T00:33:50.069Z,36.13
2022-10-21T00:36:17.314Z,34.50
2022-10-21T00:38:45.570Z,34.93
2022-10-21T00:41:13.570Z,34.67
2022-10-21T00:44:01.247Z,34.97
2022-10-21T00:46:33.996Z,35.57
2022-10-21T00:49:02.540Z,35.40
2022-10-21T00:51:29.750Z,34.73
2022-10-21T00:53:56.794Z,35.70
2022-10-21T00:56:26.361Z,35.27
2022-10-21T00:58:54.812Z,36.80
2022-10-21T01:01:22.744Z,36.33
2022-10-21T01:03:50.791Z,35.17
2022-10-21T01:06:19.721Z,34.07
2022-10-21T01:08:46.929Z,35.27
2022-10-21T01:11:16.520Z,34.33
2022-10-21T01:13:49.446Z,33.77
2022-10-21T01:16:24.308Z,34.90
2022-10-21T01:18:51.389Z,33.97
2022-10-21T01:21:41.852Z,36.23
2022-10-21T01:24:27.837Z,35.17
2022-10-21T01:27:14.310Z,36.10
2022-10-21T01:29:56.756Z,36.67
2022-10-21T01:32:29.628Z,37.27
2022-10-21T01:35:03.020Z,35.33
2022-10-21T01:37:38.631Z,35.83
2022-10-21T01:40:12.276Z,37.50
2022-10-21T01:42:44.891Z,36.00
2022-10-21T01:45:18.094Z,34.67
2022-10-21T01:47:47.766Z,35.47
2022-10-21T01:50:19.857Z,33.43
2022-10-21T01:52:48.977Z,34.63
2022-10-21T01:55:18.593Z,35.40
2022-10-21T01:57:49.985Z,35.17
2022-10-21T02:00:17.260Z,38.40
2022-10-21T02:02:47.901Z,36.60
2022-10-21T02:05:18.261Z,36.13
2022-10-21T02:07:45.347Z,35.37
2022-10-21T02:10:12.436Z,36.67
2022-10-21T02:12:41.115Z,37.67
2022-10-21T02:15:10.106Z,37.73
2022-10-21T02:17:38.714Z,35.47
2022-10-21T02:20:07.799Z,35.03
2022-10-21T02:22:35.716Z,35.30
2022-10-21T02:25:06.781Z,34.23
2022-10-21T02:27:33.946Z,34.00
2022-10-21T02:30:01.362Z,35.33
2022-10-21T02:32:47.062Z,35.83
2022-10-21T02:35:20.509Z,34.13
2022-10-21T02:37:59.833Z,34.57
2022-10-21T02:40:34.443Z,34.57
2022-10-21T02:43:04.899Z,35.00
2022-10-21T02:45:33.086Z,36.00
2022-10-21T02:48:00.376Z,36.70
2022-10-21T02:50:27.463Z,36.30
2022-10-21T02:52:54.577Z,35.53
2022-10-21T02:55:21.664Z,37.07
2022-10-21T02:57:48.797Z,36.47
2022-10-21T03:00:16.017Z,35.67
2022-10-21T03:02:43.182Z,37.60
2022-10-21T03:05:12.715Z,39.43
2022-10-21T03:07:40.580Z,36.53
2022-10-21T03:10:08.139Z,37.83
2022-10-21T03:12:35.204Z,36.50
2022-10-21T03:15:02.287Z,37.00
2022-10-21T03:17:29.384Z,38.23
2022-10-21T03:19:56.478Z,37.93
2022-10-21T03:22:23.581Z,38.03
2022-10-21T03:24:50.663Z,38.07
2022-10-21T03:27:17.754Z,37.63
2022-10-21T03:29:44.901Z,39.10
2022-10-21T03:32:12.018Z,38.27
2022-10-21T03:34:39.082Z,38.23
2022-10-21T03:37:06.121Z,38.10
2022-10-21T03:39:33.215Z,38.83
2022-10-21T03:42:00.294Z,39.53
2022-10-21T03:44:27.359Z,37.40
2022-10-21T03:46:54.421Z,38.10
2022-10-21T03:49:21.697Z,38.57
2022-10-21T03:51:49.381Z,37.83
2022-10-21T03:54:16.813Z,42.20
2022-10-21T03:56:43.865Z,39.73
2022-10-21T03:59:10.934Z,39.97
2022-10-21T04:01:38.378Z,40.80
2022-10-21T04:04:05.605Z,39.43
2022-10-21T04:06:32.785Z,40.33
2022-10-21T04:08:59.932Z,39.33
2022-10-21T04:11:27.279Z,38.10
2022-10-21T04:13:54.341Z,40.07
2022-10-21T04:16:22.245Z,39.93
2022-10-21T04:18:49.565Z,38.37
2022-10-21T04:21:16.755Z,38.50
2022-10-21T04:23:43.947Z,39.97
2022-10-21T04:26:11.268Z,39.57
2022-10-21T04:28:38.369Z,39.93
2022-10-21T04:31:05.569Z,39.57
2022-10-21T04:33:32.636Z,39.57
2022-10-21T04:35:59.693Z,39.23
2022-10-21T04:38:26.915Z,41.60
2022-10-21T04:41:01.434Z,39.80
2022-10-21T04:43:28.851Z,37.87
2022-10-21T04:45:56.217Z,38.30
2022-10-21T04:48:23.406Z,38.90
2022-10-21T04:50:51.317Z,39.57
2022-10-21T04:53:18.428Z,37.90
2022-10-21T04:55:45.591Z,39.13
2022-10-21T04:58:12.738Z,36.73
2022-10-21T05:00:39.836Z,35.70
2022-10-21T05:03:06.934Z,37.87
2022-10-21T05:05:34.024Z,37.77
2022-10-21T05:08:01.243Z,37.10
2022-10-21T05:10:30.376Z,37.07
2022-10-21T05:12:58.160Z,38.43
2022-10-21T05:15:25.882Z,35.53
2022-10-21T05:17:53.658Z,37.10
2022-10-21T05:20:20.859Z,36.33
2022-10-21T05:22:49.471Z,37.27
2022-10-21T05:25:16.594Z,36.50
2022-10-21T05:27:43.879Z,36.23
2022-10-21T05:30:11.266Z,35.07
2022-10-21T05:32:39.611Z,36.03
2022-10-21T05:35:07.021Z,34.57
2022-10-21T05:37:34.543Z,35.77
2022-10-21T05:40:01.594Z,36.07
2022-10-21T05:42:28.690Z,34.43
2022-10-21T05:44:55.775Z,35.47
2022-10-21T05:47:24.031Z,35.57
2022-10-21T05:49:51.414Z,34.83
2022-10-21T05:52:18.502Z,34.57
2022-10-21T05:54:45.565Z,35.97
2022-10-21T05:57:12.696Z,34.83
2022-10-21T05:59:39.806Z,35.23
2022-10-21T06:02:06.946Z,36.00
2022-10-21T06:04:37.909Z,35.63
2022-10-21T06:07:05.900Z,33.67
2022-10-21T06:09:33.138Z,34.20
2022-10-21T06:12:00.253Z,34.23
2022-10-21T06:14:27.717Z,33.40
2022-10-21T06:16:54.809Z,33.40
2022-10-21T06:19:21.909Z,33.90
2022-10-21T06:21:49.356Z,32.40
2022-10-21T06:24:16.625Z,33.20
2022-10-21T06:26:43.763Z,33.23
2022-10-21T06:29:10.892Z,32.47
2022-10-21T06:31:38.043Z,32.97
2022-10-21T06:34:05.171Z,32.37
2022-10-21T06:36:32.367Z,33.63
2022-10-21T06:38:59.463Z,33.30
2022-10-21T06:41:26.696Z,32.37
2022-10-21T06:43:53.775Z,33.83
2022-10-21T06:46:20.844Z,33.10
2022-10-21T06:48:47.985Z,33.00
2022-10-21T06:51:16.756Z,30.77
2022-10-21T06:53:44.580Z,31.47
2022-10-21T06:56:13.028Z,32.00
2022-10-21T06:58:46.276Z,31.60
2022-10-21T07:01:27.529Z,30.37
2022-10-21T07:04:01.519Z,32.17
2022-10-21T07:06:28.672Z,29.17
2022-10-21T07:08:59.439Z,28.83
2022-10-21T07:11:27.493Z,30.30
2022-10-21T07:13:54.596Z,28.90
2022-10-21T07:16:25.801Z,30.57
2022-10-21T07:18:53.192Z,31.43
2022-10-21T07:21:21.195Z,32.33
2022-10-21T07:23:49.281Z,31.50
2022-10-21T07:26:16.393Z,31.40
2022-10-21T07:28:47.294Z,32.87
2022-10-21T07:31:23.258Z,29.63
2022-10-21T07:33:50.370Z,32.87
2022-10-21T07:36:19.366Z,35.03
2022-10-21T07:38:46.757Z,36.00
2022-10-21T07:41:18.605Z,34.37
2022-10-21T07:43:46.099Z,32.87
2022-10-21T07:46:13.355Z,34.43
2022-10-21T07:48:40.401Z,29.63
2022-10-21T07:51:08.631Z,30.27
2022-10-21T07:53:35.724Z,31.83
2022-10-21T07:56:04.231Z,30.50
2022-10-21T07:58:31.660Z,30.73
2022-10-21T08:00:59.962Z,31.83
2022-10-21T08:03:27.203Z,32.27
2022-10-21T08:05:54.569Z,33.17
2022-10-21T08:08:21.779Z,31.33
2022-10-21T08:13:17.759Z,29.93
2022-10-21T08:15:45.506Z,29.50
2022-10-21T08:18:12.867Z,30.63
2022-10-21T08:20:43.965Z,30.00
2022-10-21T08:23:14.840Z,29.77
2022-10-21T08:25:55.803Z,28.03
2022-10-21T08:28:23.799Z,28.40
2022-10-21T08:30:50.921Z,30.23
2022-10-21T08:33:18.217Z,29.37
2022-10-21T08:35:45.342Z,28.83
2022-10-21T08:38:12.604Z,29.73
2022-10-21T08:40:45.901Z,30.10
2022-10-21T08:43:20.470Z,31.03
2022-10-21T08:45:50.613Z,32.40
2022-10-21T08:48:20.596Z,31.63
2022-10-21T08:50:49.334Z,29.43
2022-10-21T08:53:22.268Z,28.13
2022-10-21T08:55:49.822Z,26.67
2022-10-21T08:58:19.460Z,27.57
2022-10-21T09:00:48.885Z,27.63
2022-10-21T09:03:18.997Z,27.10
2022-10-21T09:05:55.071Z,27.27
2022-10-21T09:08:22.209Z,26.43
2022-10-21T09:10:58.620Z,26.03
2022-10-21T09:13:46.645Z,25.63
2022-10-21T09:16:32.241Z,25.23
2022-10-21T09:19:05.370Z,24.70
2022-10-21T09:21:32.464Z,25.23
2022-10-21T09:23:59.571Z,26.40
2022-10-21T09:26:46.373Z,28.13
2022-10-21T09:29:16.207Z,28.20
2022-10-21T09:31:44.551Z,30.43
2022-10-21T09:34:38.019Z,28.90
2022-10-21T09:37:06.106Z,29.00
2022-10-21T09:39:45.431Z,28.57
2022-10-21T09:42:29.151Z,27.00
2022-10-21T09:45:00.530Z,27.53
2022-10-21T09:47:27.639Z,27.87
2022-10-21T09:50:13.822Z,28.20
2022-10-21T09:52:43.362Z,29.90
2022-10-21T09:55:13.493Z,28.47
2022-10-21T09:57:46.965Z,28.63
2022-10-21T10:00:14.363Z,28.67
2022-10-21T10:02:43.380Z,27.83
2022-10-21T10:05:29.273Z,28.37
2022-10-21T10:07:56.399Z,28.33
2022-10-21T10:10:31.618Z,29.50
2022-10-21T10:12:59.326Z,29.20
2022-10-21T10:15:33.995Z,28.90
2022-10-21T10:18:01.779Z,32.43
2022-10-21T10:20:28.850Z,30.47
2022-10-21T10:22:59.014Z,29.80
2022-10-21T10:25:30.394Z,29.77
2022-10-21T10:27:59.459Z,31.13
2022-10-21T10:30:29.990Z,30.37
2022-10-21T10:32:57.138Z,28.33
2022-10-21T10:35:30.176Z,30.13
2022-10-21T10:38:02.278Z,32.27
2022-10-21T10:40:38.764Z,33.30
2022-10-21T10:43:13.940Z,32.50
2022-10-21T10:45:48.290Z,33.10
2022-10-21T10:48:23.433Z,35.33
2022-10-21T10:50:50.931Z,37.30
2022-10-21T10:53:29.704Z,38.77
2022-10-21T10:56:15.298Z,37.03
2022-10-21T10:58:44.807Z,39.50
2022-10-21T11:01:14.169Z,38.60
2022-10-21T11:03:44.894Z,40.27
2022-10-21T11:06:17.318Z,36.63
2022-10-21T11:08:53.227Z,36.90
2022-10-21T11:11:27.682Z,36.73
2022-10-21T11:13:54.858Z,31.40
2022-10-21T11:16:21.952Z,30.93
2022-10-21T11:18:52.051Z,30.43
2022-10-21T11:21:37.937Z,30.30
2022-10-21T11:24:07.993Z,30.93
2022-10-21T11:26:37.849Z,33.33
2022-10-21T11:29:23.011Z,35.70
2022-10-21T11:32:12.639Z,29.00
2022-10-21T11:34:48.875Z,25.60
2022-10-21T11:37:21.790Z,26.03
2022-10-21T11:39:54.851Z,24.37
2022-10-21T11:42:25.018Z,12.53
2022-10-21T11:44:52.071Z,15.80
2022-10-21T11:47:25.367Z,3.60
2022-10-21T11:50:10.957Z,5.73
2022-10-21T11:52:41.170Z,8.43
2022-10-21T11:55:10.878Z,4.10
2022-10-21T11:57:56.818Z,5.37
2022-10-21T12:00:25.363Z,2.37
2022-10-21T12:02:52.470Z,2.13
2022-10-21T12:05:28.811Z,2.37
2022-10-21T12:08:14.611Z,2.43
2022-10-21T12:10:41.748Z,2.13
2022-10-21T12:13:14.986Z,2.30
2022-10-21T12:15:44.033Z,2.30
2022-10-21T12:18:14.930Z,1.90
2022-10-21T12:20:42.885Z,2.00
2022-10-21T12:23:11.758Z,1.97
2022-10-21T12:25:43.124Z,1.60
2022-10-21T12:28:25.377Z,1.50
2022-10-21T12:30:59.952Z,1.47
2022-10-21T12:33:39.161Z,1.50
2022-10-21T12:36:15.623Z,1.70
2022-10-21T12:39:12.793Z,1.40
2022-10-21T12:41:40.726Z,1.43
2022-10-21T12:44:24.992Z,1.60
2022-10-21T12:46:53.697Z,1.30
2022-10-21T12:49:20.733Z,1.40
2022-10-21T12:51:59.201Z,1.30
2022-10-21T12:54:34.338Z,1.20
2022-10-21T12:57:03.222Z,1.30
2022-10-21T12:59:33.403Z,1.23
2022-10-21T13:02:06.454Z,1.60
2022-10-21T13:04:33.629Z,1.33
2022-10-21T13:07:01.417Z,1.20
2022-10-21T13:09:32.815Z,1.70
2022-10-21T13:12:25.757Z,1.33
2022-10-21T13:15:11.703Z,1.50
2022-10-21T13:17:53.184Z,1.20
2022-10-21T13:20:20.258Z,1.50
2022-10-21T13:22:48.303Z,1.60
2022-10-21T13:25:35.266Z,1.40
2022-10-21T13:28:05.099Z,1.67
2022-10-21T13:30:38.950Z,1.70
2022-10-21T13:33:07.437Z,1.70
2022-10-21T13:35:51.586Z,1.63
2022-10-21T13:38:21.770Z,1.60
2022-10-21T13:40:50.610Z,1.50
2022-10-21T13:43:30.937Z,1.80
2022-10-21T13:46:04.065Z,1.50
2022-10-21T13:48:31.466Z,1.60
2022-10-21T13:51:11.947Z,1.70
2022-10-21T13:53:43.498Z,1.70
2022-10-21T13:56:19.271Z,1.60
2022-10-21T13:58:46.456Z,1.70
2022-10-21T14:01:13.601Z,1.60
2022-10-21T14:03:42.118Z,1.57
2022-10-21T14:06:09.795Z,1.63
2022-10-21T14:08:41.998Z,1.50
2022-10-21T14:11:12.987Z,1.40
2022-10-21T14:13:40.306Z,1.40
2022-10-21T14:16:07.860Z,1.37
2022-10-21T14:18:39.302Z,1.60
2022-10-21T14:21:07.048Z,1.63
2022-10-21T14:23:34.502Z,1.45
2022-10-21T14:26:06.081Z,1.40
2022-10-21T14:28:33.551Z,1.33
2022-10-21T14:31:01.398Z,1.33
2022-10-21T14:33:30.640Z,1.70
2022-10-21T14:36:24.974Z,1.75
2022-10-21T14:39:00.518Z,1.20
2022-10-21T14:41:27.701Z,1.40
2022-10-21T14:43:55.184Z,1.77
2022-10-21T14:46:22.670Z,1.20
2022-10-21T14:48:52.829Z,1.50
2022-10-21T14:51:22.466Z,1.23
2022-10-21T14:53:59.676Z,1.80
2022-10-21T14:56:34.564Z,1.43
2022-10-21T14:59:03.935Z,1.80
2022-10-21T15:01:31.550Z,1.60
2022-10-21T15:04:00.101Z,1.63
2022-10-21T15:06:28.281Z,1.70
2022-10-21T15:08:58.520Z,1.70
2022-10-21T15:11:29.079Z,2.07
2022-10-21T15:14:06.732Z,1.60
2022-10-21T15:19:14.989Z,1.70
2022-10-21T15:21:50.181Z,1.80
2022-10-21T15:24:41.748Z,1.57
2022-10-21T15:27:14.817Z,2.00
2022-10-21T15:29:46.243Z,1.60
2022-10-21T15:32:18.724Z,1.90
2022-10-21T15:37:13.701Z,2.03
2022-10-21T15:39:40.900Z,5.07
2022-10-21T15:42:08.174Z,2.40
2022-10-21T15:44:35.648Z,4.03
2022-10-21T15:47:05.588Z,2.50
2022-10-21T15:49:34.421Z,3.40
2022-10-21T15:52:01.606Z,4.70
2022-10-21T15:54:28.726Z,3.53
2022-10-21T15:56:55.929Z,4.00
2022-10-21T15:59:25.064Z,22.10
2022-10-21T16:01:52.352Z,9.73
2022-10-21T16:04:19.751Z,16.60
2022-10-21T16:06:50.072Z,16.73
2022-10-21T16:09:27.479Z,14.83
2022-10-21T16:11:59.472Z,9.80
2022-10-21T16:14:29.511Z,5.50
2022-10-21T16:17:00.497Z,5.60
2022-10-21T16:19:27.890Z,5.73
2022-10-21T16:21:55.100Z,5.00
2022-10-21T16:24:22.227Z,4.83
2022-10-21T16:26:49.883Z,4.57
2022-10-21T16:31:50.875Z,3.83
2022-10-21T16:34:18.012Z,3.93
2022-10-21T16:36:45.145Z,4.70
2022-10-21T16:39:19.861Z,4.30
2022-10-21T16:41:46.917Z,4.93
2022-10-21T16:44:14.174Z,8.37
2022-10-21T16:46:42.500Z,6.87
2022-10-21T16:49:13.865Z,6.60
2022-10-21T16:51:42.261Z,5.60
2022-10-21T16:54:09.351Z,5.73
2022-10-21T16:56:36.428Z,4.63
2022-10-21T16:59:03.670Z,3.43
2022-10-21T17:01:30.924Z,4.57
2022-10-21T17:03:58.084Z,4.60
2022-10-21T17:06:26.822Z,5.80
2022-10-21T17:08:54.765Z,6.70
2022-10-21T17:11:35.234Z,8.87
2022-10-21T17:14:03.012Z,8.37
2022-10-21T17:16:30.468Z,9.43
2022-10-21T17:18:57.576Z,8.43
2022-10-21T17:21:31.927Z,9.03
2022-10-21T17:24:00.189Z,9.40
2022-10-21T17:26:27.686Z,10.03
2022-10-21T17:28:55.541Z,10.90
2022-10-21T17:31:23.830Z,11.60
2022-10-21T17:33:51.437Z,10.90
2022-10-21T17:36:18.893Z,10.90
2022-10-21T17:38:46.360Z,41.17
2022-10-21T17:41:14.269Z,23.63
2022-10-21T17:43:41.684Z,17.67
2022-10-21T17:46:10.473Z,11.30
2022-10-21T17:48:37.579Z,9.60
2022-10-21T17:51:04.684Z,9.97
2022-10-21T17:53:31.769Z,10.57
2022-10-21T17:56:03.325Z,11.03
2022-10-21T17:58:30.552Z,11.00
2022-10-21T18:00:58.193Z,10.30
2022-10-21T18:03:26.054Z,10.13
2022-10-21T18:05:53.813Z,10.10
2022-10-21T18:08:20.895Z,10.93
2022-10-21T18:10:58.239Z,11.40
2022-10-21T18:13:26.472Z,10.63
2022-10-21T18:15:53.626Z,11.03
2022-10-21T18:18:21.433Z,10.13
2022-10-21T18:20:49.096Z,10.10
2022-10-21T18:23:16.327Z,9.87
2022-10-21T18:25:43.545Z,10.40
2022-10-21T18:28:10.732Z,10.17
2022-10-21T18:30:44.429Z,10.50
2022-10-21T18:33:11.635Z,10.27
2022-10-21T18:35:38.726Z,11.30
2022-10-21T18:38:05.858Z,12.63
2022-10-21T18:40:33.477Z,12.00
2022-10-21T18:43:00.559Z,10.27
2022-10-21T18:45:27.687Z,10.80
2022-10-21T18:47:55.597Z,10.00
2022-10-21T18:50:22.701Z,11.90
2022-10-21T18:52:49.796Z,16.73
2022-10-21T18:55:17.230Z,20.00
2022-10-21T18:57:44.471Z,18.77
2022-10-21T19:00:11.738Z,15.77
2022-10-21T19:02:38.849Z,13.73
2022-10-21T19:05:06.200Z,14.00
2022-10-21T19:07:33.268Z,14.30
2022-10-21T19:10:00.321Z,16.10
2022-10-21T19:12:27.503Z,14.97
2022-10-21T19:14:54.640Z,15.70
2022-10-21T19:17:21.834Z,16.07
2022-10-21T19:19:48.916Z,27.20
2022-10-21T19:22:17.321Z,57.70
2022-10-21T19:24:44.522Z,32.30
2022-10-21T19:27:11.699Z,26.23
2022-10-21T19:29:38.818Z,24.87
2022-10-21T19:32:05.970Z,20.77
2022-10-21T19:34:33.013Z,24.60
2022-10-21T19:37:00.188Z,21.07
2022-10-21T19:39:27.233Z,19.80
2022-10-21T19:41:54.306Z,19.13
2022-10-21T19:44:21.399Z,20.53
2022-10-21T19:46:48.438Z,23.60
2022-10-21T19:49:15.499Z,26.40
2022-10-21T19:51:42.568Z,23.27
2022-10-21T19:54:10.197Z,21.03
2022-10-21T19:56:37.260Z,20.97
2022-10-21T19:59:04.946Z,23.87
2022-10-21T20:01:33.254Z,24.67
2022-10-21T20:04:01.153Z,22.30
2022-10-21T20:06:29.331Z,23.20
2022-10-21T20:09:04.467Z,21.90
2022-10-21T20:11:31.801Z,21.27
2022-10-21T20:13:58.866Z,20.93
2022-10-21T20:16:26.665Z,18.47
2022-10-21T20:18:54.230Z,18.07
2022-10-21T20:21:22.830Z,18.60
2022-10-21T20:23:50.106Z,16.87
2022-10-21T20:26:17.586Z,18.57
2022-10-21T20:28:44.932Z,16.00
2022-10-21T20:31:13.545Z,16.57
2022-10-21T20:33:42.212Z,16.70
2022-10-21T20:36:12.837Z,19.60
2022-10-21T20:38:39.894Z,18.47
2022-10-21T20:41:09.379Z,17.63
2022-10-21T20:43:37.165Z,22.53
2022-10-21T20:46:05.294Z,23.80
2022-10-21T20:48:32.801Z,24.70
2022-10-21T20:51:03.545Z,23.43
2022-10-21T20:53:31.862Z,20.40
2022-10-21T20:55:59.434Z,25.83
2022-10-21T20:58:26.587Z,19.17
2022-10-21T21:00:53.927Z,20.60
2022-10-21T21:03:21.081Z,22.30
2022-10-21T21:05:48.162Z,31.33
2022-10-21T21:08:15.238Z,29.83
2022-10-21T21:10:42.364Z,24.67
2022-10-21T21:13:09.498Z,31.17
2022-10-21T21:15:36.625Z,27.43
2022-10-21T21:18:07.828Z,25.43
2022-10-21T21:20:34.914Z,26.37
2022-10-21T21:23:02.012Z,25.67
2022-10-21T21:25:29.699Z,24.97
2022-10-21T21:27:56.757Z,27.00
2022-10-21T21:30:23.844Z,32.97
2022-10-21T21:32:50.930Z,31.57
2022-10-21T21:35:18.101Z,44.80
2022-10-21T21:37:45.164Z,39.73
2022-10-21T21:40:12.335Z,44.73
2022-10-21T21:42:39.915Z,42.53
2022-10-21T21:45:07.566Z,43.03
2022-10-21T21:47:34.653Z,32.57
2022-10-21T21:50:01.783Z,31.83
2022-10-21T21:52:29.597Z,31.40
2022-10-21T21:54:57.627Z,31.10
2022-10-21T21:57:28.575Z,30.97
2022-10-21T21:59:55.910Z,31.67
2022-10-21T22:02:22.971Z,31.73
2022-10-21T22:04:50.050Z,27.07
2022-10-21T22:07:17.169Z,24.73
2022-10-21T22:09:44.260Z,19.73
2022-10-21T22:12:14.434Z,20.17
2022-10-21T22:14:42.181Z,17.23
2022-10-21T22:17:09.222Z,18.50
2022-10-21T22:19:36.297Z,17.90
2022-10-21T22:22:03.409Z,17.87
2022-10-21T22:27:05.805Z,17.87
2022-10-21T22:29:32.903Z,18.13
2022-10-21T22:32:00.018Z,19.03
2022-10-21T22:34:27.139Z,22.87
2022-10-21T22:36:54.250Z,22.80
2022-10-21T22:39:21.595Z,26.90
2022-10-21T22:41:48.730Z,25.10
2022-10-21T22:44:15.927Z,25.73
2022-10-21T22:46:43.049Z,25.60
2022-10-21T22:49:10.362Z,26.40
2022-10-21T22:51:37.438Z,22.87
2022-10-21T22:54:11.556Z,23.33
2022-10-21T22:56:46.574Z,21.00
2022-10-21T22:59:13.643Z,19.83
2022-10-21T23:01:40.742Z,19.67
2022-10-21T23:04:07.863Z,19.83
2022-10-21T23:06:35.544Z,18.87
2022-10-21T23:09:03.649Z,19.30
2022-10-21T23:11:31.042Z,18.10
2022-10-21T23:14:03.221Z,17.67
2022-10-21T23:16:34.825Z,19.20
2022-10-21T23:19:01.957Z,19.70
2022-10-21T23:21:29.155Z,19.37
2022-10-21T23:23:56.312Z,19.87
2022-10-21T23:26:23.398Z,18.93
2022-10-21T23:28:50.513Z,18.30
2022-10-21T23:31:17.605Z,20.30
2022-10-21T23:33:44.713Z,27.10
2022-10-21T23:36:11.827Z,26.00
2022-10-21T23:38:38.904Z,22.73
2022-10-21T23:41:05.966Z,19.23
2022-10-21T23:43:33.041Z,17.00
2022-10-21T23:46:00.127Z,17.00
2022-10-21T23:48:27.222Z,17.90
2022-10-21T23:50:54.308Z,17.70
2022-10-21T23:53:21.400Z,18.33
2022-10-21T23:55:48.469Z,17.20
2022-10-21T23:58:15.534Z,16.97
